createdAt,value
2023-04-23T00:00:14.948Z,98692.13
2023-04-23T00:02:49.968Z,98681.34
2023-04-23T00:05:19.032Z,98681.66
2023-04-23T00:07:47.673Z,98683.94
2023-04-23T00:10:17.231Z,98678.22
2023-04-23T00:12:47.923Z,98680.00
2023-04-23T00:15:17.858Z,98673.97
2023-04-23T00:17:46.381Z,98679.50
2023-04-23T00:20:14.974Z,98669.56
2023-04-23T00:22:43.573Z,98671.84
2023-04-23T00:25:12.506Z,98668.91
2023-04-23T00:27:41.211Z,98662.84
2023-04-23T00:30:12.665Z,98672.16
2023-04-23T00:32:41.761Z,98662.50
2023-04-23T00:35:10.664Z,98671.47
2023-04-23T00:37:39.056Z,98660.22
2023-04-23T00:40:09.656Z,98659.22
2023-04-23T00:42:39.796Z,98661.78
2023-04-23T00:45:12.500Z,98661.31
2023-04-23T00:47:42.342Z,98663.59
2023-04-23T00:50:11.603Z,98664.72
2023-04-23T00:52:40.884Z,98662.59
2023-04-23T00:55:10.338Z,98656.84
2023-04-23T00:57:40.026Z,98659.47
2023-04-23T01:00:14.031Z,98655.72
2023-04-23T01:02:44.644Z,98669.06
2023-04-23T01:05:15.414Z,98658.63
2023-04-23T01:07:45.767Z,98656.47
2023-04-23T01:10:14.543Z,98651.56
2023-04-23T01:12:42.909Z,98656.63
2023-04-23T01:15:13.575Z,98664.44
2023-04-23T01:17:43.355Z,98650.09
2023-04-23T01:20:12.687Z,98660.34
2023-04-23T01:22:42.507Z,98657.09
2023-04-23T01:25:12.122Z,98651.88
2023-04-23T01:27:41.025Z,98655.28
2023-04-23T01:30:11.079Z,98659.16
2023-04-23T01:32:40.295Z,98651.19
2023-04-23T01:35:09.963Z,98647.09
2023-04-23T01:37:42.243Z,98646.59
2023-04-23T01:40:11.390Z,98651.66
2023-04-23T01:42:40.290Z,98646.72
2023-04-23T01:45:10.872Z,98643.47
2023-04-23T01:47:39.394Z,98647.69
2023-04-23T01:50:09.901Z,98648.03
2023-04-23T01:52:38.355Z,98648.34
2023-04-23T01:55:09.363Z,98651.41
2023-04-23T01:57:37.889Z,98650.59
2023-04-23T02:00:11.429Z,98650.09
2023-04-23T02:02:42.374Z,98652.38
2023-04-23T02:05:14.657Z,98655.28
2023-04-23T02:07:43.902Z,98652.00
2023-04-23T02:10:14.555Z,98647.75
2023-04-23T02:12:43.374Z,98646.75
2023-04-23T02:15:13.799Z,98650.44
2023-04-23T02:17:42.340Z,98642.75
2023-04-23T02:20:12.708Z,98644.53
2023-04-23T02:22:43.038Z,98636.00
2023-04-23T02:25:15.749Z,98644.94
2023-04-23T02:27:44.244Z,98652.75
2023-04-23T02:30:13.559Z,98645.09
2023-04-23T02:32:43.195Z,98648.16
2023-04-23T02:35:12.808Z,98648.00
2023-04-23T02:37:41.268Z,98646.16
2023-04-23T02:40:11.390Z,98645.78
2023-04-23T02:42:42.576Z,98641.19
2023-04-23T02:45:13.429Z,98639.38
2023-04-23T02:47:41.853Z,98644.41
2023-04-23T02:50:10.931Z,98643.38
2023-04-23T02:52:39.341Z,98641.25
2023-04-23T02:55:09.813Z,98650.16
2023-04-23T02:57:40.268Z,98649.16
2023-04-23T03:00:12.323Z,98647.34
2023-04-23T03:02:40.810Z,98652.66
2023-04-23T03:05:10.589Z,98645.00
2023-04-23T03:07:39.038Z,98645.28
2023-04-23T03:10:09.383Z,98646.22
2023-04-23T03:12:37.802Z,98639.06
2023-04-23T03:15:09.168Z,98648.00
2023-04-23T03:17:38.665Z,98633.34
2023-04-23T03:20:10.903Z,98649.41
2023-04-23T03:22:39.317Z,98648.59
2023-04-23T03:25:08.731Z,98642.56
2023-04-23T03:27:39.029Z,98637.34
2023-04-23T03:30:11.792Z,98645.16
2023-04-23T03:32:40.521Z,98641.88
2023-04-23T03:35:10.308Z,98650.47
2023-04-23T03:37:38.737Z,98643.59
2023-04-23T03:40:09.346Z,98645.03
2023-04-23T03:42:37.828Z,98648.91
2023-04-23T03:45:08.105Z,98642.06
2023-04-23T03:47:37.967Z,98644.00
2023-04-23T03:50:08.395Z,98658.13
2023-04-23T03:52:37.333Z,98655.38
2023-04-23T03:55:07.192Z,98656.81
2023-04-23T03:57:35.652Z,98656.31
2023-04-23T04:00:04.931Z,98655.47
2023-04-23T04:02:33.474Z,98654.66
2023-04-23T04:05:03.528Z,98658.25
2023-04-23T04:07:32.274Z,98651.59
2023-04-23T04:10:03.093Z,98650.78
2023-04-23T04:12:31.430Z,98652.72
2023-04-23T04:14:59.854Z,98656.81
2023-04-23T04:17:28.296Z,98658.13
2023-04-23T04:19:56.788Z,98665.28
2023-04-23T04:22:26.532Z,98656.72
2023-04-23T04:24:54.922Z,98669.91
2023-04-23T04:27:23.320Z,98667.69
2023-04-23T04:29:51.874Z,98667.38
2023-04-23T04:32:20.477Z,98658.75
2023-04-23T04:34:50.129Z,98666.44
2023-04-23T04:37:18.475Z,98676.91
2023-04-23T04:39:48.305Z,98679.34
2023-04-23T04:42:16.851Z,98683.13
2023-04-23T04:44:45.254Z,98687.22
2023-04-23T04:47:16.364Z,98684.66
2023-04-23T04:49:45.052Z,98685.66
2023-04-23T04:52:13.405Z,98685.56
2023-04-23T04:54:42.542Z,98688.19
2023-04-23T04:57:12.582Z,98694.44
2023-04-23T04:59:41.251Z,98696.78
2023-04-23T05:02:09.924Z,98698.31
2023-04-23T05:04:38.297Z,98698.16
2023-04-23T05:07:06.752Z,98694.44
2023-04-23T05:09:35.146Z,98694.84
2023-04-23T05:12:03.537Z,98687.75
2023-04-23T05:14:33.258Z,98696.44
2023-04-23T05:17:01.810Z,98701.22
2023-04-23T05:19:30.277Z,98695.78
2023-04-23T05:21:58.702Z,98706.56
2023-04-23T05:24:27.491Z,98708.59
2023-04-23T05:26:56.654Z,98708.66
2023-04-23T05:29:25.195Z,98708.38
2023-04-23T05:31:55.119Z,98700.94
2023-04-23T05:34:23.483Z,98706.38
2023-04-23T05:36:51.862Z,98709.41
2023-04-23T05:39:20.389Z,98705.31
2023-04-23T05:41:48.761Z,98706.34
2023-04-23T05:44:17.149Z,98704.72
2023-04-23T05:46:45.562Z,98704.25
2023-04-23T05:49:15.413Z,98711.09
2023-04-23T05:51:45.382Z,98709.41
2023-04-23T05:54:14.856Z,98714.59
2023-04-23T05:56:43.223Z,98708.38
2023-04-23T05:59:12.043Z,98709.19
2023-04-23T06:01:40.773Z,98710.66
2023-04-23T06:04:09.800Z,98711.81
2023-04-23T06:06:39.772Z,98711.00
2023-04-23T06:09:08.499Z,98711.16
2023-04-23T06:11:37.095Z,98719.66
2023-04-23T06:14:05.977Z,98709.50
2023-04-23T06:16:34.337Z,98720.47
2023-04-23T06:19:02.811Z,98714.06
2023-04-23T06:21:32.520Z,98708.09
2023-04-23T06:24:02.307Z,98710.06
2023-04-23T06:26:33.122Z,98709.66
2023-04-23T06:29:01.633Z,98714.50
2023-04-23T06:31:30.355Z,98719.34
2023-04-23T06:33:58.784Z,98713.38
2023-04-23T06:36:27.176Z,98721.88
2023-04-23T06:38:55.673Z,98718.34
2023-04-23T06:41:25.646Z,98716.44
2023-04-23T06:43:54.091Z,98719.41
2023-04-23T06:46:22.588Z,98712.47
2023-04-23T06:48:50.982Z,98708.09
2023-04-23T06:51:19.538Z,98711.41
2023-04-23T06:53:48.734Z,98710.31
2023-04-23T06:56:17.102Z,98707.56
2023-04-23T06:58:46.864Z,98711.53
2023-04-23T07:01:15.524Z,98707.28
2023-04-23T07:03:45.174Z,98704.47
2023-04-23T07:06:14.189Z,98704.50
2023-04-23T07:08:42.625Z,98701.75
2023-04-23T07:11:10.964Z,98693.38
2023-04-23T07:13:39.816Z,98694.97
2023-04-23T07:16:09.842Z,98697.16
2023-04-23T07:18:38.293Z,98699.13
2023-04-23T07:21:06.918Z,98689.22
2023-04-23T07:23:35.384Z,98693.00
2023-04-23T07:26:03.902Z,98697.09
2023-04-23T07:28:32.956Z,98691.72
2023-04-23T07:31:01.479Z,98687.00
2023-04-23T07:33:31.399Z,98680.56
2023-04-23T07:35:59.750Z,98691.31
2023-04-23T07:38:28.181Z,98681.25
2023-04-23T07:40:56.678Z,98683.22
2023-04-23T07:43:25.123Z,98681.13
2023-04-23T07:45:54.477Z,98683.03
2023-04-23T07:48:22.910Z,98682.13
2023-04-23T07:50:52.632Z,98689.63
2023-04-23T07:53:21.035Z,98697.00
2023-04-23T07:55:49.388Z,98688.44
2023-04-23T07:58:17.748Z,98689.53
2023-04-23T08:00:46.380Z,98692.50
2023-04-23T08:03:15.038Z,98691.41
2023-04-23T08:05:43.789Z,98684.34
2023-04-23T08:08:14.127Z,98678.84
2023-04-23T08:10:42.730Z,98688.13
2023-04-23T08:13:11.175Z,98679.50
2023-04-23T08:15:39.700Z,98682.19
2023-04-23T08:18:08.232Z,98678.50
2023-04-23T08:20:36.666Z,98692.84
2023-04-23T08:23:05.569Z,98687.09
2023-04-23T08:25:35.690Z,98688.94
2023-04-23T08:28:04.121Z,98685.16
2023-04-23T08:30:33.806Z,98687.41
2023-04-23T08:33:02.279Z,98682.94
2023-04-23T08:35:30.588Z,98681.50
2023-04-23T08:37:59.148Z,98680.00
2023-04-23T08:40:30.636Z,98671.69
2023-04-23T08:43:04.580Z,98669.81
2023-04-23T08:45:41.486Z,98672.38
2023-04-23T08:48:12.062Z,98674.09
2023-04-23T08:50:42.510Z,98666.31
2023-04-23T08:53:11.333Z,98670.94
2023-04-23T08:55:39.834Z,98665.97
2023-04-23T08:58:09.740Z,98662.97
2023-04-23T09:00:39.395Z,98657.81
2023-04-23T09:03:08.232Z,98660.25
2023-04-23T09:05:37.293Z,98659.88
2023-04-23T09:08:05.760Z,98663.56
2023-04-23T09:10:38.297Z,98656.03
2023-04-23T09:13:08.458Z,98657.03
2023-04-23T09:15:43.451Z,98661.28
2023-04-23T09:18:12.376Z,98646.69
2023-04-23T09:20:40.831Z,98644.47
2023-04-23T09:23:10.203Z,98655.88
2023-04-23T09:25:38.608Z,98653.91
2023-04-23T09:28:10.949Z,98647.56
2023-04-23T09:30:45.897Z,98644.44
2023-04-23T09:33:14.800Z,98653.72
2023-04-23T09:35:43.403Z,98647.31
2023-04-23T09:38:11.789Z,98645.38
2023-04-23T09:40:40.154Z,98638.59
2023-04-23T09:43:13.738Z,98637.81
2023-04-23T09:45:50.354Z,98641.09
2023-04-23T09:48:18.778Z,98635.09
2023-04-23T09:50:47.637Z,98632.69
2023-04-23T09:53:16.161Z,98632.59
2023-04-23T09:55:46.566Z,98625.22
2023-04-23T09:58:17.222Z,98625.53
2023-04-23T10:00:45.975Z,98634.66
2023-04-23T10:03:15.069Z,98625.78
2023-04-23T10:06:00.459Z,98624.91
2023-04-23T10:08:31.006Z,98623.66
2023-04-23T10:11:10.152Z,98623.59
2023-04-23T10:13:49.285Z,98623.47
2023-04-23T10:16:24.349Z,98618.53
2023-04-23T10:18:57.006Z,98609.56
2023-04-23T10:21:36.729Z,98608.31
2023-04-23T10:24:16.087Z,98596.28
2023-04-23T10:26:45.653Z,98600.75
2023-04-23T10:29:17.360Z,98598.28
2023-04-23T10:31:47.189Z,98593.47
2023-04-23T10:34:17.258Z,98595.97
2023-04-23T10:36:45.705Z,98591.22
2023-04-23T10:39:20.806Z,98586.50
2023-04-23T10:41:56.535Z,98587.56
2023-04-23T10:44:56.563Z,98577.38
2023-04-23T10:47:23.157Z,98566.75
2023-04-23T10:49:51.747Z,98566.50
2023-04-23T10:52:23.802Z,98572.19
2023-04-23T10:55:00.884Z,98562.44
2023-04-23T10:57:30.349Z,98559.50
2023-04-23T11:00:04.776Z,98561.72
2023-04-23T11:02:45.328Z,98557.41
2023-04-23T11:05:13.866Z,98542.91
2023-04-23T11:07:42.287Z,98553.53
2023-04-23T11:10:16.307Z,98546.31
2023-04-23T11:12:46.039Z,98541.03
2023-04-23T11:15:19.817Z,98533.88
2023-04-23T11:18:02.239Z,98540.56
2023-04-23T11:20:30.936Z,98536.22
2023-04-23T11:22:59.387Z,98529.16
2023-04-23T11:25:30.625Z,98525.47
2023-04-23T11:27:59.645Z,98524.41
2023-04-23T11:30:31.467Z,98525.06
2023-04-23T11:33:01.708Z,98531.88
2023-04-23T11:35:37.875Z,98516.69
2023-04-23T11:38:10.209Z,98519.09
2023-04-23T11:40:40.442Z,98523.34
2023-04-23T11:43:09.787Z,98510.41
2023-04-23T11:45:39.594Z,98507.63
2023-04-23T11:48:08.391Z,98510.41
2023-04-23T11:50:38.500Z,98508.69
2023-04-23T11:53:08.020Z,98499.59
2023-04-23T11:55:36.399Z,98499.09
2023-04-23T11:58:05.023Z,98495.25
2023-04-23T12:00:33.525Z,98494.28
2023-04-23T12:03:06.070Z,98493.25
2023-04-23T12:05:37.078Z,98489.53
2023-04-23T12:08:10.912Z,98492.50
2023-04-23T12:10:47.115Z,98483.34
2023-04-23T12:13:16.988Z,98479.53
2023-04-23T12:15:50.293Z,98478.06
2023-04-23T12:18:20.822Z,98483.63
2023-04-23T12:20:49.174Z,98483.91
2023-04-23T12:23:17.681Z,98477.78
2023-04-23T12:25:46.640Z,98477.91
2023-04-23T12:28:15.044Z,98470.91
2023-04-23T12:30:46.362Z,98479.53
2023-04-23T12:33:14.943Z,98481.44
2023-04-23T12:35:46.424Z,98473.69
2023-04-23T12:38:24.986Z,98469.69
2023-04-23T12:40:53.764Z,98470.38
2023-04-23T12:43:22.293Z,98461.38
2023-04-23T12:45:52.158Z,98463.13
2023-04-23T12:48:20.560Z,98457.16
2023-04-23T12:50:50.878Z,98459.69
2023-04-23T12:53:20.666Z,98453.53
2023-04-23T12:55:50.359Z,98455.53
2023-04-23T12:58:18.749Z,98450.78
2023-04-23T13:00:47.527Z,98445.75
2023-04-23T13:03:17.542Z,98437.81
2023-04-23T13:05:46.105Z,98443.13
2023-04-23T13:08:15.763Z,98441.34
2023-04-23T13:10:46.053Z,98425.38
2023-04-23T13:13:14.436Z,98419.00
2023-04-23T13:15:43.985Z,98425.78
2023-04-23T13:18:12.337Z,98424.91
2023-04-23T13:20:40.738Z,98413.69
2023-04-23T13:23:11.431Z,98405.78
2023-04-23T13:25:41.460Z,98411.47
2023-04-23T13:28:09.783Z,98407.38
2023-04-23T13:30:38.255Z,98401.78
2023-04-23T13:33:06.679Z,98399.34
2023-04-23T13:35:37.795Z,98396.69
2023-04-23T13:38:06.399Z,98385.28
2023-04-23T13:40:35.509Z,98384.41
2023-04-23T13:43:06.107Z,98386.09
2023-04-23T13:45:34.433Z,98383.25
2023-04-23T13:48:03.163Z,98380.34
2023-04-23T13:50:31.676Z,98381.50
2023-04-23T13:53:00.135Z,98374.34
2023-04-23T13:55:28.587Z,98378.25
2023-04-23T13:57:58.817Z,98367.81
2023-04-23T14:00:30.547Z,98373.50
2023-04-23T14:02:59.099Z,98366.22
2023-04-23T14:05:27.747Z,98375.81
2023-04-23T14:07:56.378Z,98363.72
2023-04-23T14:10:24.874Z,98368.38
2023-04-23T14:12:54.574Z,98363.19
2023-04-23T14:15:23.371Z,98364.47
2023-04-23T14:17:53.297Z,98359.56
2023-04-23T14:20:22.398Z,98355.78
2023-04-23T14:22:56.421Z,98351.97
2023-04-23T14:25:35.620Z,98353.09
2023-04-23T14:28:18.096Z,98348.44
2023-04-23T14:30:48.634Z,98338.94
2023-04-23T14:33:18.680Z,98337.53
2023-04-23T14:35:47.389Z,98345.78
2023-04-23T14:38:16.035Z,98340.38
2023-04-23T14:40:44.452Z,98333.28
2023-04-23T14:43:15.979Z,98331.00
2023-04-23T14:45:44.904Z,98331.94
2023-04-23T14:48:13.384Z,98329.25
2023-04-23T14:50:43.188Z,98321.25
2023-04-23T14:53:11.544Z,98324.19
2023-04-23T14:55:40.031Z,98327.09
2023-04-23T14:58:08.410Z,98316.22
2023-04-23T15:00:36.818Z,98321.91
2023-04-23T15:03:10.653Z,98322.34
2023-04-23T15:05:40.102Z,98313.91
2023-04-23T15:08:10.032Z,98311.50
2023-04-23T15:10:38.643Z,98316.00
2023-04-23T15:13:10.931Z,98321.75
2023-04-23T15:15:51.435Z,98325.84
2023-04-23T15:18:21.092Z,98328.69
2023-04-23T15:20:49.547Z,98328.72
2023-04-23T15:23:21.139Z,98323.06
2023-04-23T15:25:51.943Z,98334.00
2023-04-23T15:28:20.306Z,98330.34
2023-04-23T15:30:48.695Z,98331.56
2023-04-23T15:33:17.796Z,98327.09
2023-04-23T15:35:46.242Z,98330.75
2023-04-23T15:38:14.592Z,98331.56
2023-04-23T15:40:44.348Z,98330.34
2023-04-23T15:43:13.756Z,98321.09
2023-04-23T15:45:42.695Z,98318.66
2023-04-23T15:48:11.317Z,98313.44
2023-04-23T15:50:39.828Z,98310.25
2023-04-23T15:53:08.279Z,98308.25
2023-04-23T15:55:38.957Z,98301.03
2023-04-23T15:58:08.840Z,98300.63
2023-04-23T16:00:37.872Z,98303.47
2023-04-23T16:03:07.169Z,98294.22
2023-04-23T16:05:37.195Z,98298.25
2023-04-23T16:08:05.947Z,98292.22
2023-04-23T16:10:34.729Z,98288.56
2023-04-23T16:13:04.133Z,98287.34
2023-04-23T16:15:34.815Z,98302.25
2023-04-23T16:18:03.624Z,98301.84
2023-04-23T16:20:33.326Z,98294.56
2023-04-23T16:23:03.126Z,98296.16
2023-04-23T16:25:31.745Z,98293.28
2023-04-23T16:28:00.796Z,98302.91
2023-04-23T16:30:29.624Z,98307.31
2023-04-23T16:33:00.043Z,98303.28
2023-04-23T16:35:29.591Z,98307.69
2023-04-23T16:37:59.676Z,98304.44
2023-04-23T16:40:28.865Z,98305.22
2023-04-23T16:42:57.856Z,98299.56
2023-04-23T16:45:26.558Z,98301.94
2023-04-23T16:47:55.362Z,98305.47
2023-04-23T16:50:25.756Z,98304.25
2023-04-23T16:52:56.929Z,98303.44
2023-04-23T16:55:26.303Z,98311.84
2023-04-23T16:57:55.750Z,98301.75
2023-04-23T17:00:24.244Z,98297.31
2023-04-23T17:02:52.858Z,98296.88
2023-04-23T17:05:26.093Z,98299.63
2023-04-23T17:07:54.871Z,98297.19
2023-04-23T17:10:23.443Z,98296.75
2023-04-23T17:12:54.271Z,98304.75
2023-04-23T17:15:23.787Z,98308.69
2023-04-23T17:17:53.246Z,98312.69
2023-04-23T17:20:22.928Z,98314.63
2023-04-23T17:22:53.278Z,98304.47
2023-04-23T17:25:22.439Z,98311.19
2023-04-23T17:27:51.162Z,98297.38
2023-04-23T17:30:20.049Z,98304.00
2023-04-23T17:32:49.030Z,98293.03
2023-04-23T17:35:19.441Z,98298.88
2023-04-23T17:37:51.743Z,98312.34
2023-04-23T17:40:22.518Z,98304.09
2023-04-23T17:42:51.731Z,98300.28
2023-04-23T17:45:22.982Z,98301.69
2023-04-23T17:47:54.599Z,98303.91
2023-04-23T17:50:23.588Z,98302.13
2023-04-23T17:52:54.832Z,98291.50
2023-04-23T17:55:27.047Z,98297.41
2023-04-23T17:57:56.243Z,98293.63
2023-04-23T18:00:25.643Z,98300.22
2023-04-23T18:02:56.977Z,98304.03
2023-04-23T18:05:27.029Z,98301.50
2023-04-23T18:07:57.007Z,98302.94
2023-04-23T18:10:29.283Z,98311.16
2023-04-23T18:12:58.691Z,98304.63
2023-04-23T18:15:32.642Z,98307.28
2023-04-23T18:18:02.579Z,98306.81
2023-04-23T18:20:34.389Z,98302.66
2023-04-23T18:23:03.711Z,98305.78
2023-04-23T18:25:34.157Z,98300.84
2023-04-23T18:28:04.236Z,98308.38
2023-04-23T18:30:34.269Z,98312.72
2023-04-23T18:33:14.135Z,98311.03
2023-04-23T18:35:44.399Z,98314.19
2023-04-23T18:38:26.273Z,98315.69
2023-04-23T18:40:59.576Z,98316.84
2023-04-23T18:43:29.993Z,98322.34
2023-04-23T18:45:58.656Z,98324.72
2023-04-23T18:48:54.064Z,98325.72
2023-04-23T18:51:31.702Z,98329.69
2023-04-23T18:54:04.377Z,98326.00
2023-04-23T18:56:35.951Z,98324.69
2023-04-23T18:59:05.125Z,98332.19
2023-04-23T19:01:37.587Z,98326.91
2023-04-23T19:04:06.137Z,98326.81
2023-04-23T19:06:35.174Z,98323.13
2023-04-23T19:09:04.792Z,98323.41
2023-04-23T19:11:39.254Z,98318.09
2023-04-23T19:14:10.111Z,98317.22
2023-04-23T19:16:44.764Z,98313.53
2023-04-23T19:19:16.778Z,98321.03
2023-04-23T19:21:46.268Z,98327.34
2023-04-23T19:24:15.536Z,98324.44
2023-04-23T19:26:47.226Z,98319.59
2023-04-23T19:29:17.424Z,98321.94
2023-04-23T19:31:46.770Z,98316.72
2023-04-23T19:34:16.554Z,98307.06
2023-04-23T19:36:45.889Z,98315.00
2023-04-23T19:39:15.301Z,98308.13
2023-04-23T19:41:48.083Z,98301.28
2023-04-23T19:44:17.572Z,98301.19
2023-04-23T19:46:46.732Z,98297.97
2023-04-23T19:49:16.835Z,98285.91
2023-04-23T19:51:46.571Z,98289.41
2023-04-23T19:54:15.362Z,98288.13
2023-04-23T19:56:45.943Z,98291.66
2023-04-23T19:59:17.536Z,98291.22
2023-04-23T20:01:47.591Z,98284.34
2023-04-23T20:04:16.713Z,98285.09
2023-04-23T20:06:47.233Z,98283.84
2023-04-23T20:09:19.220Z,98274.97
2023-04-23T20:11:52.629Z,98276.53
2023-04-23T20:14:21.047Z,98273.38
2023-04-23T20:16:49.926Z,98276.63
2023-04-23T20:19:19.236Z,98261.50
2023-04-23T20:21:48.927Z,98259.97
2023-04-23T20:24:17.420Z,98271.59
2023-04-23T20:26:45.854Z,98270.03
2023-04-23T20:29:15.891Z,98266.88
2023-04-23T20:31:49.231Z,98272.91
2023-04-23T20:34:19.053Z,98271.75
2023-04-23T20:36:49.008Z,98263.38
2023-04-23T20:39:22.721Z,98262.09
2023-04-23T20:41:52.663Z,98258.41
2023-04-23T20:44:23.890Z,98253.91
2023-04-23T20:46:52.277Z,98258.22
2023-04-23T20:49:21.533Z,98254.53
2023-04-23T20:51:49.897Z,98253.66
2023-04-23T20:54:18.516Z,98267.06
2023-04-23T20:56:46.985Z,98261.41
2023-04-23T20:59:15.928Z,98257.72
2023-04-23T21:01:45.768Z,98263.19
2023-04-23T21:04:14.483Z,98260.78
2023-04-23T21:06:43.923Z,98265.19
2023-04-23T21:09:12.344Z,98251.97
2023-04-23T21:11:41.084Z,98249.50
2023-04-23T21:14:09.634Z,98260.69
2023-04-23T21:16:39.805Z,98258.25
2023-04-23T21:19:09.675Z,98260.22
2023-04-23T21:21:38.241Z,98261.88
2023-04-23T21:24:07.016Z,98257.44
2023-04-23T21:26:35.478Z,98259.06
2023-04-23T21:29:03.940Z,98255.09
2023-04-23T21:31:47.072Z,98258.25
2023-04-23T21:34:17.199Z,98253.50
2023-04-23T21:36:45.916Z,98248.72
2023-04-23T21:39:14.781Z,98246.25
2023-04-23T21:41:44.356Z,98241.50
2023-04-23T21:44:12.726Z,98231.50
2023-04-23T21:46:43.154Z,98234.66
2023-04-23T21:49:12.059Z,98233.06
2023-04-23T21:51:41.864Z,98224.56
2023-04-23T21:54:10.802Z,98226.88
2023-04-23T21:56:39.445Z,98214.44
2023-04-23T21:59:07.972Z,98215.53
2023-04-23T22:01:36.927Z,98208.69
2023-04-23T22:04:05.722Z,98204.63
2023-04-23T22:06:35.230Z,98206.53
2023-04-23T22:09:05.882Z,98200.88
2023-04-23T22:11:34.762Z,98199.94
2023-04-23T22:14:03.362Z,98204.19
2023-04-23T22:16:31.852Z,98192.13
2023-04-23T22:19:00.555Z,98189.59
2023-04-23T22:21:29.353Z,98195.81
2023-04-23T22:23:57.822Z,98193.28
2023-04-23T22:26:27.689Z,98207.84
2023-04-23T22:28:56.480Z,98208.09
2023-04-23T22:31:24.940Z,98205.56
2023-04-23T22:33:53.360Z,98208.59
2023-04-23T22:36:21.762Z,98204.06
2023-04-23T22:38:50.153Z,98196.75
2023-04-23T22:41:18.592Z,98196.22
2023-04-23T22:43:48.402Z,98198.06
2023-04-23T22:46:16.984Z,98190.00
2023-04-23T22:48:47.789Z,98181.50
2023-04-23T22:51:16.325Z,98187.00
2023-04-23T22:53:44.695Z,98182.94
2023-04-23T22:56:13.209Z,98174.81
2023-04-23T22:58:41.647Z,98171.13
2023-04-23T23:01:11.440Z,98171.72
2023-04-23T23:03:39.970Z,98179.97
2023-04-23T23:06:08.585Z,98164.69
2023-04-23T23:08:37.009Z,98164.47
2023-04-23T23:11:05.501Z,98161.13
2023-04-23T23:13:33.899Z,98164.13
2023-04-23T23:16:05.792Z,98158.81
2023-04-23T23:18:35.632Z,98154.41
2023-04-23T23:21:04.074Z,98154.41
2023-04-23T23:23:32.538Z,98150.13
2023-04-23T23:26:00.964Z,98143.72
2023-04-23T23:28:29.323Z,98148.59
2023-04-23T23:30:57.967Z,98145.00
2023-04-23T23:33:27.176Z,98143.38
2023-04-23T23:35:57.562Z,98138.06
2023-04-23T23:38:25.878Z,98133.97
2023-04-23T23:40:54.292Z,98131.81
2023-04-23T23:43:22.656Z,98128.06
2023-04-23T23:45:51.197Z,98122.75
2023-04-23T23:48:19.722Z,98118.22
2023-04-23T23:50:48.169Z,98116.50
2023-04-23T23:53:17.920Z,98116.75
2023-04-23T23:55:46.312Z,98111.44
2023-04-23T23:58:14.756Z,98117.22
